sensor_id;sensor_type;location;lat;lon;timestamp;temperature;humidity
78541;SHT31;67835;51.968;5.646;2024-02-26T00:01:58;8.6;64.0
78541;SHT31;67835;51.968;5.646;2024-02-26T00:04:26;8.6;64.0
78541;SHT31;67835;51.968;5.646;2024-02-26T00:06:55;8.5;64.0
78541;SHT31;67835;51.968;5.646;2024-02-26T00:09:24;8.5;64.0
78541;SHT31;67835;51.968;5.646;2024-02-26T00:11:53;8.5;64.0
78541;SHT31;67835;51.968;5.646;2024-02-26T00:14:21;8.5;64.1
78541;SHT31;67835;51.968;5.646;2024-02-26T00:16:50;8.5;64.1
78541;SHT31;67835;51.968;5.646;2024-02-26T00:19:18;8.5;64.0
78541;SHT31;67835;51.968;5.646;2024-02-26T00:21:47;8.5;64.0
78541;SHT31;67835;51.968;5.646;2024-02-26T00:24:17;8.5;63.9
78541;SHT31;67835;51.968;5.646;2024-02-26T00:26:45;8.5;64.0
78541;SHT31;67835;51.968;5.646;2024-02-26T00:29:19;8.4;64.1
78541;SHT31;67835;51.968;5.646;2024-02-26T00:31:48;8.4;64.1
78541;SHT31;67835;51.968;5.646;2024-02-26T00:34:18;8.4;64.0
78541;SHT31;67835;51.968;5.646;2024-02-26T00:36:46;8.4;63.8
78541;SHT31;67835;51.968;5.646;2024-02-26T00:39:17;8.4;64.0
78541;SHT31;67835;51.968;5.646;2024-02-26T00:41:45;8.4;64.0
78541;SHT31;67835;51.968;5.646;2024-02-26T00:44:14;8.4;64.0
78541;SHT31;67835;51.968;5.646;2024-02-26T00:46:42;8.4;64.0
78541;SHT31;67835;51.968;5.646;2024-02-26T00:49:10;8.4;63.8
78541;SHT31;67835;51.968;5.646;2024-02-26T00:51:39;8.4;63.8
78541;SHT31;67835;51.968;5.646;2024-02-26T00:54:07;8.4;63.9
78541;SHT31;67835;51.968;5.646;2024-02-26T00:56:35;8.5;63.9
78541;SHT31;67835;51.968;5.646;2024-02-26T00:59:04;8.5;63.9
78541;SHT31;67835;51.968;5.646;2024-02-26T01:01:34;8.5;63.7
78541;SHT31;67835;51.968;5.646;2024-02-26T01:04:03;8.5;63.7
78541;SHT31;67835;51.968;5.646;2024-02-26T01:06:32;8.5;63.8
78541;SHT31;67835;51.968;5.646;2024-02-26T01:09:00;8.5;63.7
78541;SHT31;67835;51.968;5.646;2024-02-26T01:11:29;8.5;63.5
78541;SHT31;67835;51.968;5.646;2024-02-26T01:13:58;8.5;63.7
78541;SHT31;67835;51.968;5.646;2024-02-26T01:16:26;8.6;63.3
78541;SHT31;67835;51.968;5.646;2024-02-26T01:18:57;8.6;63.3
78541;SHT31;67835;51.968;5.646;2024-02-26T01:21:25;8.6;63.3
78541;SHT31;67835;51.968;5.646;2024-02-26T01:23:56;8.6;63.2
78541;SHT31;67835;51.968;5.646;2024-02-26T01:26:25;8.6;63.2
78541;SHT31;67835;51.968;5.646;2024-02-26T01:28:53;8.6;63.4
78541;SHT31;67835;51.968;5.646;2024-02-26T01:31:22;8.6;63.1
78541;SHT31;67835;51.968;5.646;2024-02-26T01:33:51;8.6;63.0
78541;SHT31;67835;51.968;5.646;2024-02-26T01:36:19;8.6;63.0
78541;SHT31;67835;51.968;5.646;2024-02-26T01:38:48;8.6;62.8
78541;SHT31;67835;51.968;5.646;2024-02-26T01:41:16;8.6;62.7
78541;SHT31;67835;51.968;5.646;2024-02-26T01:43:45;8.6;62.9
78541;SHT31;67835;51.968;5.646;2024-02-26T01:46:15;8.6;62.7
78541;SHT31;67835;51.968;5.646;2024-02-26T01:48:46;8.6;62.8
78541;SHT31;67835;51.968;5.646;2024-02-26T01:51:17;8.7;62.7
78541;SHT31;67835;51.968;5.646;2024-02-26T01:53:46;8.7;62.9
78541;SHT31;67835;51.968;5.646;2024-02-26T01:56:17;8.7;63.1
78541;SHT31;67835;51.968;5.646;2024-02-26T01:58:48;8.7;62.8
78541;SHT31;67835;51.968;5.646;2024-02-26T02:01:19;8.7;62.9
78541;SHT31;67835;51.968;5.646;2024-02-26T02:03:49;8.7;63.0
78541;SHT31;67835;51.968;5.646;2024-02-26T02:06:19;8.7;62.8
78541;SHT31;67835;51.968;5.646;2024-02-26T02:08:50;8.7;62.8
78541;SHT31;67835;51.968;5.646;2024-02-26T02:11:21;8.7;62.6
78541;SHT31;67835;51.968;5.646;2024-02-26T02:13:52;8.7;62.8
78541;SHT31;67835;51.968;5.646;2024-02-26T02:16:20;8.7;62.7
78541;SHT31;67835;51.968;5.646;2024-02-26T02:18:48;8.7;62.8
78541;SHT31;67835;51.968;5.646;2024-02-26T02:21:17;8.7;62.9
78541;SHT31;67835;51.968;5.646;2024-02-26T02:23:46;8.7;63.0
78541;SHT31;67835;51.968;5.646;2024-02-26T02:26:15;8.7;62.9
78541;SHT31;67835;51.968;5.646;2024-02-26T02:28:45;8.7;62.9
78541;SHT31;67835;51.968;5.646;2024-02-26T02:31:15;8.8;62.7
78541;SHT31;67835;51.968;5.646;2024-02-26T02:33:44;8.8;62.8
78541;SHT31;67835;51.968;5.646;2024-02-26T02:36:15;8.8;62.5
78541;SHT31;67835;51.968;5.646;2024-02-26T02:38:51;8.8;62.5
78541;SHT31;67835;51.968;5.646;2024-02-26T02:41:20;8.8;62.3
78541;SHT31;67835;51.968;5.646;2024-02-26T02:43:48;8.8;62.5
78541;SHT31;67835;51.968;5.646;2024-02-26T02:46:17;8.8;62.5
78541;SHT31;67835;51.968;5.646;2024-02-26T02:48:45;8.8;62.6
78541;SHT31;67835;51.968;5.646;2024-02-26T02:51:13;8.8;62.3
78541;SHT31;67835;51.968;5.646;2024-02-26T02:53:42;8.8;62.7
78541;SHT31;67835;51.968;5.646;2024-02-26T02:56:10;8.8;63.0
78541;SHT31;67835;51.968;5.646;2024-02-26T02:58:39;8.8;63.2
78541;SHT31;67835;51.968;5.646;2024-02-26T03:01:07;8.8;63.2
78541;SHT31;67835;51.968;5.646;2024-02-26T03:03:36;8.8;63.0
78541;SHT31;67835;51.968;5.646;2024-02-26T03:06:05;8.7;62.8
78541;SHT31;67835;51.968;5.646;2024-02-26T03:08:35;8.7;62.9
78541;SHT31;67835;51.968;5.646;2024-02-26T03:11:05;8.7;62.8
78541;SHT31;67835;51.968;5.646;2024-02-26T03:13:34;8.7;62.7
78541;SHT31;67835;51.968;5.646;2024-02-26T03:16:06;8.7;62.9
78541;SHT31;67835;51.968;5.646;2024-02-26T03:18:35;8.7;62.9
78541;SHT31;67835;51.968;5.646;2024-02-26T03:21:03;8.7;62.7
78541;SHT31;67835;51.968;5.646;2024-02-26T03:23:32;8.7;62.7
78541;SHT31;67835;51.968;5.646;2024-02-26T03:26:03;8.7;62.8
78541;SHT31;67835;51.968;5.646;2024-02-26T03:28:31;8.7;62.9
78541;SHT31;67835;51.968;5.646;2024-02-26T03:31:01;8.7;63.0
78541;SHT31;67835;51.968;5.646;2024-02-26T03:33:31;8.7;63.0
78541;SHT31;67835;51.968;5.646;2024-02-26T03:36:00;8.7;63.0
78541;SHT31;67835;51.968;5.646;2024-02-26T03:38:29;8.7;63.1
78541;SHT31;67835;51.968;5.646;2024-02-26T03:40:58;8.7;62.8
78541;SHT31;67835;51.968;5.646;2024-02-26T03:43:26;8.7;62.7
78541;SHT31;67835;51.968;5.646;2024-02-26T03:45:55;8.7;62.6
78541;SHT31;67835;51.968;5.646;2024-02-26T03:48:23;8.8;62.2
78541;SHT31;67835;51.968;5.646;2024-02-26T03:50:52;8.8;61.9
78541;SHT31;67835;51.968;5.646;2024-02-26T03:53:20;8.8;61.6
78541;SHT31;67835;51.968;5.646;2024-02-26T03:55:48;8.8;61.7
78541;SHT31;67835;51.968;5.646;2024-02-26T03:58:18;8.8;61.5
78541;SHT31;67835;51.968;5.646;2024-02-26T04:00:47;8.8;61.6
78541;SHT31;67835;51.968;5.646;2024-02-26T04:03:15;8.8;61.5
78541;SHT31;67835;51.968;5.646;2024-02-26T04:05:44;8.8;61.9
78541;SHT31;67835;51.968;5.646;2024-02-26T04:08:14;8.8;62.1
78541;SHT31;67835;51.968;5.646;2024-02-26T04:10:42;8.8;62.2
78541;SHT31;67835;51.968;5.646;2024-02-26T04:13:11;8.8;62.0
78541;SHT31;67835;51.968;5.646;2024-02-26T04:15:39;8.8;62.3
78541;SHT31;67835;51.968;5.646;2024-02-26T04:18:08;8.8;62.5
78541;SHT31;67835;51.968;5.646;2024-02-26T04:20:36;8.8;62.3
78541;SHT31;67835;51.968;5.646;2024-02-26T04:23:07;8.8;62.4
78541;SHT31;67835;51.968;5.646;2024-02-26T04:25:36;8.8;62.6
78541;SHT31;67835;51.968;5.646;2024-02-26T04:28:05;8.8;62.6
78541;SHT31;67835;51.968;5.646;2024-02-26T04:30:34;8.8;63.0
78541;SHT31;67835;51.968;5.646;2024-02-26T04:33:02;8.8;63.0
78541;SHT31;67835;51.968;5.646;2024-02-26T04:35:31;8.7;63.0
78541;SHT31;67835;51.968;5.646;2024-02-26T04:38:01;8.7;63.0
78541;SHT31;67835;51.968;5.646;2024-02-26T04:40:29;8.7;63.1
78541;SHT31;67835;51.968;5.646;2024-02-26T04:42:58;8.7;63.2
78541;SHT31;67835;51.968;5.646;2024-02-26T04:45:26;8.7;63.2
78541;SHT31;67835;51.968;5.646;2024-02-26T04:47:55;8.7;63.2
78541;SHT31;67835;51.968;5.646;2024-02-26T04:50:24;8.7;63.2
78541;SHT31;67835;51.968;5.646;2024-02-26T04:52:52;8.6;63.4
78541;SHT31;67835;51.968;5.646;2024-02-26T04:55:20;8.6;63.4
78541;SHT31;67835;51.968;5.646;2024-02-26T04:57:49;8.6;63.7
78541;SHT31;67835;51.968;5.646;2024-02-26T05:00:20;8.6;63.8
78541;SHT31;67835;51.968;5.646;2024-02-26T05:02:49;8.5;63.8
78541;SHT31;67835;51.968;5.646;2024-02-26T05:05:17;8.5;63.7
78541;SHT31;67835;51.968;5.646;2024-02-26T05:07:46;8.5;63.8
78541;SHT31;67835;51.968;5.646;2024-02-26T05:10:16;8.5;64.1
78541;SHT31;67835;51.968;5.646;2024-02-26T05:12:45;8.5;64.1
78541;SHT31;67835;51.968;5.646;2024-02-26T05:15:14;8.5;64.4
78541;SHT31;67835;51.968;5.646;2024-02-26T05:17:44;8.5;64.7
78541;SHT31;67835;51.968;5.646;2024-02-26T05:20:13;8.5;64.6
78541;SHT31;67835;51.968;5.646;2024-02-26T05:22:42;8.5;64.6
78541;SHT31;67835;51.968;5.646;2024-02-26T05:25:11;8.5;64.8
78541;SHT31;67835;51.968;5.646;2024-02-26T05:27:39;8.4;64.9
78541;SHT31;67835;51.968;5.646;2024-02-26T05:30:08;8.4;65.1
78541;SHT31;67835;51.968;5.646;2024-02-26T05:32:39;8.4;65.0
78541;SHT31;67835;51.968;5.646;2024-02-26T05:35:08;8.4;65.0
78541;SHT31;67835;51.968;5.646;2024-02-26T05:37:37;8.4;65.1
78541;SHT31;67835;51.968;5.646;2024-02-26T05:40:06;8.4;65.4
78541;SHT31;67835;51.968;5.646;2024-02-26T05:42:35;8.4;65.4
78541;SHT31;67835;51.968;5.646;2024-02-26T05:45:05;8.4;65.7
78541;SHT31;67835;51.968;5.646;2024-02-26T05:47:34;8.4;65.6
78541;SHT31;67835;51.968;5.646;2024-02-26T05:50:09;8.4;65.6
78541;SHT31;67835;51.968;5.646;2024-02-26T05:52:38;8.4;65.5
78541;SHT31;67835;51.968;5.646;2024-02-26T05:55:08;8.4;65.7
78541;SHT31;67835;51.968;5.646;2024-02-26T05:57:37;8.4;65.6
78541;SHT31;67835;51.968;5.646;2024-02-26T06:00:06;8.4;65.7
78541;SHT31;67835;51.968;5.646;2024-02-26T06:02:35;8.4;65.6
78541;SHT31;67835;51.968;5.646;2024-02-26T06:05:04;8.4;65.8
78541;SHT31;67835;51.968;5.646;2024-02-26T06:07:33;8.4;65.8
78541;SHT31;67835;51.968;5.646;2024-02-26T06:10:02;8.4;65.5
78541;SHT31;67835;51.968;5.646;2024-02-26T06:12:31;8.4;65.8
78541;SHT31;67835;51.968;5.646;2024-02-26T06:15:00;8.4;65.8
78541;SHT31;67835;51.968;5.646;2024-02-26T06:17:28;8.4;65.9
78541;SHT31;67835;51.968;5.646;2024-02-26T06:19:57;8.4;65.8
78541;SHT31;67835;51.968;5.646;2024-02-26T06:22:26;8.4;65.7
78541;SHT31;67835;51.968;5.646;2024-02-26T06:24:57;8.4;65.7
78541;SHT31;67835;51.968;5.646;2024-02-26T06:27:25;8.4;65.8
78541;SHT31;67835;51.968;5.646;2024-02-26T06:29:54;8.4;65.7
78541;SHT31;67835;51.968;5.646;2024-02-26T06:32:22;8.4;65.9
78541;SHT31;67835;51.968;5.646;2024-02-26T06:34:53;8.4;65.9
78541;SHT31;67835;51.968;5.646;2024-02-26T06:37:22;8.4;65.9
78541;SHT31;67835;51.968;5.646;2024-02-26T06:39:51;8.4;65.7
78541;SHT31;67835;51.968;5.646;2024-02-26T06:42:20;8.4;65.8
78541;SHT31;67835;51.968;5.646;2024-02-26T06:44:48;8.4;65.8
78541;SHT31;67835;51.968;5.646;2024-02-26T06:47:17;8.4;66.1
78541;SHT31;67835;51.968;5.646;2024-02-26T06:49:46;8.4;66.1
78541;SHT31;67835;51.968;5.646;2024-02-26T06:52:16;8.4;66.2
78541;SHT31;67835;51.968;5.646;2024-02-26T06:54:44;8.4;66.2
78541;SHT31;67835;51.968;5.646;2024-02-26T06:57:16;8.4;66.2
78541;SHT31;67835;51.968;5.646;2024-02-26T06:59:45;8.4;66.4
78541;SHT31;67835;51.968;5.646;2024-02-26T07:02:14;8.4;66.2
78541;SHT31;67835;51.968;5.646;2024-02-26T07:04:42;8.4;66.3
78541;SHT31;67835;51.968;5.646;2024-02-26T07:07:13;8.4;66.4
78541;SHT31;67835;51.968;5.646;2024-02-26T07:09:44;8.4;66.3
78541;SHT31;67835;51.968;5.646;2024-02-26T07:12:13;8.4;66.5
78541;SHT31;67835;51.968;5.646;2024-02-26T07:14:42;8.4;66.6
78541;SHT31;67835;51.968;5.646;2024-02-26T07:17:11;8.4;66.6
78541;SHT31;67835;51.968;5.646;2024-02-26T07:19:39;8.4;66.5
78541;SHT31;67835;51.968;5.646;2024-02-26T07:22:07;8.4;66.4
78541;SHT31;67835;51.968;5.646;2024-02-26T07:24:38;8.4;66.6
78541;SHT31;67835;51.968;5.646;2024-02-26T07:27:07;8.4;66.5
78541;SHT31;67835;51.968;5.646;2024-02-26T07:29:35;8.4;66.6
78541;SHT31;67835;51.968;5.646;2024-02-26T07:32:05;8.4;67.0
78541;SHT31;67835;51.968;5.646;2024-02-26T07:34:33;8.4;67.3
78541;SHT31;67835;51.968;5.646;2024-02-26T07:37:04;8.4;67.3
78541;SHT31;67835;51.968;5.646;2024-02-26T07:39:33;8.4;67.7
78541;SHT31;67835;51.968;5.646;2024-02-26T07:42:01;8.4;67.8
78541;SHT31;67835;51.968;5.646;2024-02-26T07:44:29;8.4;68.0
78541;SHT31;67835;51.968;5.646;2024-02-26T07:46:58;8.4;68.1
78541;SHT31;67835;51.968;5.646;2024-02-26T07:49:26;8.3;68.3
78541;SHT31;67835;51.968;5.646;2024-02-26T07:51:55;8.3;68.7
78541;SHT31;67835;51.968;5.646;2024-02-26T07:54:24;8.3;68.8
78541;SHT31;67835;51.968;5.646;2024-02-26T07:56:53;8.3;69.1
78541;SHT31;67835;51.968;5.646;2024-02-26T07:59:21;8.3;69.2
78541;SHT31;67835;51.968;5.646;2024-02-26T08:01:53;8.3;69.0
78541;SHT31;67835;51.968;5.646;2024-02-26T08:04:24;8.3;68.9
78541;SHT31;67835;51.968;5.646;2024-02-26T08:06:53;8.3;69.1
78541;SHT31;67835;51.968;5.646;2024-02-26T08:09:21;8.3;69.4
78541;SHT31;67835;51.968;5.646;2024-02-26T08:11:50;8.3;69.5
78541;SHT31;67835;51.968;5.646;2024-02-26T08:14:18;8.3;69.3
78541;SHT31;67835;51.968;5.646;2024-02-26T08:16:47;8.3;69.3
78541;SHT31;67835;51.968;5.646;2024-02-26T08:19:16;8.3;69.2
78541;SHT31;67835;51.968;5.646;2024-02-26T08:21:44;8.4;69.6
78541;SHT31;67835;51.968;5.646;2024-02-26T08:24:12;8.4;69.3
78541;SHT31;67835;51.968;5.646;2024-02-26T08:26:41;8.4;69.3
78541;SHT31;67835;51.968;5.646;2024-02-26T08:29:09;8.4;69.1
78541;SHT31;67835;51.968;5.646;2024-02-26T08:31:37;8.4;69.1
78541;SHT31;67835;51.968;5.646;2024-02-26T08:34:09;8.4;69.2
78541;SHT31;67835;51.968;5.646;2024-02-26T08:36:38;8.4;69.2
78541;SHT31;67835;51.968;5.646;2024-02-26T08:39:06;8.4;69.0
78541;SHT31;67835;51.968;5.646;2024-02-26T08:41:35;8.4;69.3
78541;SHT31;67835;51.968;5.646;2024-02-26T08:44:04;8.4;69.3
78541;SHT31;67835;51.968;5.646;2024-02-26T08:46:32;8.4;69.2
78541;SHT31;67835;51.968;5.646;2024-02-26T08:49:01;8.4;69.6
78541;SHT31;67835;51.968;5.646;2024-02-26T08:51:29;8.5;69.7
78541;SHT31;67835;51.968;5.646;2024-02-26T08:53:58;8.5;69.9
78541;SHT31;67835;51.968;5.646;2024-02-26T08:56:26;8.5;69.7
78541;SHT31;67835;51.968;5.646;2024-02-26T08:58:54;8.5;69.8
78541;SHT31;67835;51.968;5.646;2024-02-26T09:01:23;8.5;70.0
78541;SHT31;67835;51.968;5.646;2024-02-26T09:03:52;8.5;70.1
78541;SHT31;67835;51.968;5.646;2024-02-26T09:06:21;8.5;70.1
78541;SHT31;67835;51.968;5.646;2024-02-26T09:08:49;8.6;69.9
78541;SHT31;67835;51.968;5.646;2024-02-26T09:11:19;8.6;70.0
78541;SHT31;67835;51.968;5.646;2024-02-26T09:13:49;8.6;70.0
78541;SHT31;67835;51.968;5.646;2024-02-26T09:16:20;8.6;69.7
78541;SHT31;67835;51.968;5.646;2024-02-26T09:18:48;8.6;70.1
78541;SHT31;67835;51.968;5.646;2024-02-26T09:21:16;8.6;70.2
78541;SHT31;67835;51.968;5.646;2024-02-26T09:23:49;8.7;70.4
78541;SHT31;67835;51.968;5.646;2024-02-26T09:26:18;8.7;70.3
78541;SHT31;67835;51.968;5.646;2024-02-26T09:28:46;8.8;70.0
78541;SHT31;67835;51.968;5.646;2024-02-26T09:31:15;8.8;69.4
78541;SHT31;67835;51.968;5.646;2024-02-26T09:33:47;8.9;69.4
78541;SHT31;67835;51.968;5.646;2024-02-26T09:36:16;8.9;69.0
78541;SHT31;67835;51.968;5.646;2024-02-26T09:38:44;8.9;68.8
78541;SHT31;67835;51.968;5.646;2024-02-26T09:41:15;8.9;69.2
78541;SHT31;67835;51.968;5.646;2024-02-26T09:43:45;8.9;69.1
78541;SHT31;67835;51.968;5.646;2024-02-26T09:46:14;8.9;69.2
78541;SHT31;67835;51.968;5.646;2024-02-26T09:48:47;8.9;69.4
78541;SHT31;67835;51.968;5.646;2024-02-26T09:51:16;8.9;69.3
78541;SHT31;67835;51.968;5.646;2024-02-26T09:53:52;8.9;69.1
78541;SHT31;67835;51.968;5.646;2024-02-26T09:56:21;8.9;69.2
78541;SHT31;67835;51.968;5.646;2024-02-26T09:58:52;8.9;69.3
78541;SHT31;67835;51.968;5.646;2024-02-26T10:01:22;8.9;69.1
78541;SHT31;67835;51.968;5.646;2024-02-26T10:03:56;8.9;68.9
78541;SHT31;67835;51.968;5.646;2024-02-26T10:06:26;8.9;68.9
78541;SHT31;67835;51.968;5.646;2024-02-26T10:08:56;8.9;68.7
78541;SHT31;67835;51.968;5.646;2024-02-26T10:11:26;8.9;68.7
78541;SHT31;67835;51.968;5.646;2024-02-26T10:13:56;8.9;68.7
78541;SHT31;67835;51.968;5.646;2024-02-26T10:16:25;8.9;68.6
78541;SHT31;67835;51.968;5.646;2024-02-26T10:18:54;9.0;68.6
78541;SHT31;67835;51.968;5.646;2024-02-26T10:21:23;9.0;68.6
78541;SHT31;67835;51.968;5.646;2024-02-26T10:23:51;9.0;68.9
78541;SHT31;67835;51.968;5.646;2024-02-26T10:26:20;9.0;68.7
78541;SHT31;67835;51.968;5.646;2024-02-26T10:28:51;9.0;68.8
78541;SHT31;67835;51.968;5.646;2024-02-26T10:31:20;9.0;68.9
78541;SHT31;67835;51.968;5.646;2024-02-26T10:33:49;9.0;68.5
78541;SHT31;67835;51.968;5.646;2024-02-26T10:36:17;9.0;68.8
78541;SHT31;67835;51.968;5.646;2024-02-26T10:38:46;9.0;68.7
78541;SHT31;67835;51.968;5.646;2024-02-26T10:41:14;9.0;68.5
78541;SHT31;67835;51.968;5.646;2024-02-26T10:43:44;9.0;68.7
78541;SHT31;67835;51.968;5.646;2024-02-26T10:46:12;9.0;69.0
78541;SHT31;67835;51.968;5.646;2024-02-26T10:48:51;9.0;69.1
78541;SHT31;67835;51.968;5.646;2024-02-26T10:51:22;9.0;68.7
78541;SHT31;67835;51.968;5.646;2024-02-26T10:53:56;9.0;68.7
78541;SHT31;67835;51.968;5.646;2024-02-26T10:56:29;9.0;69.0
78541;SHT31;67835;51.968;5.646;2024-02-26T10:59:01;9.0;68.9
78541;SHT31;67835;51.968;5.646;2024-02-26T11:01:33;9.0;68.6
78541;SHT31;67835;51.968;5.646;2024-02-26T11:04:05;9.0;68.7
78541;SHT31;67835;51.968;5.646;2024-02-26T11:06:37;9.0;68.9
78541;SHT31;67835;51.968;5.646;2024-02-26T11:09:06;9.1;69.0
78541;SHT31;67835;51.968;5.646;2024-02-26T11:11:40;9.1;69.0
78541;SHT31;67835;51.968;5.646;2024-02-26T11:14:09;9.1;69.1
78541;SHT31;67835;51.968;5.646;2024-02-26T11:16:39;9.1;68.7
78541;SHT31;67835;51.968;5.646;2024-02-26T11:19:10;9.1;68.9
78541;SHT31;67835;51.968;5.646;2024-02-26T11:21:40;9.1;68.8
78541;SHT31;67835;51.968;5.646;2024-02-26T11:24:12;9.1;69.1
78541;SHT31;67835;51.968;5.646;2024-02-26T11:26:45;9.1;69.0
78541;SHT31;67835;51.968;5.646;2024-02-26T11:29:21;9.2;68.3
78541;SHT31;67835;51.968;5.646;2024-02-26T11:31:51;9.2;68.8
78541;SHT31;67835;51.968;5.646;2024-02-26T11:34:22;9.2;68.8
78541;SHT31;67835;51.968;5.646;2024-02-26T11:36:52;9.2;68.7
78541;SHT31;67835;51.968;5.646;2024-02-26T11:39:20;9.2;68.7
78541;SHT31;67835;51.968;5.646;2024-02-26T11:41:52;9.2;68.9
78541;SHT31;67835;51.968;5.646;2024-02-26T11:44:30;9.2;68.6
78541;SHT31;67835;51.968;5.646;2024-02-26T11:46:59;9.2;68.4
78541;SHT31;67835;51.968;5.646;2024-02-26T11:49:33;9.2;68.8
78541;SHT31;67835;51.968;5.646;2024-02-26T11:52:08;9.2;68.6
78541;SHT31;67835;51.968;5.646;2024-02-26T11:54:44;9.2;68.9
78541;SHT31;67835;51.968;5.646;2024-02-26T11:57:37;9.2;69.0
78541;SHT31;67835;51.968;5.646;2024-02-26T12:00:15;9.2;69.5
78541;SHT31;67835;51.968;5.646;2024-02-26T12:02:50;9.2;68.9
78541;SHT31;67835;51.968;5.646;2024-02-26T12:05:24;9.2;69.0
78541;SHT31;67835;51.968;5.646;2024-02-26T12:07:59;9.2;69.2
78541;SHT31;67835;51.968;5.646;2024-02-26T12:10:31;9.2;69.1
78541;SHT31;67835;51.968;5.646;2024-02-26T12:13:05;9.3;69.1
78541;SHT31;67835;51.968;5.646;2024-02-26T12:15:37;9.3;68.9
78541;SHT31;67835;51.968;5.646;2024-02-26T12:18:08;9.3;69.1
78541;SHT31;67835;51.968;5.646;2024-02-26T12:20:38;9.3;68.9
78541;SHT31;67835;51.968;5.646;2024-02-26T12:23:07;9.3;68.3
78541;SHT31;67835;51.968;5.646;2024-02-26T12:25:35;9.3;68.4
78541;SHT31;67835;51.968;5.646;2024-02-26T12:28:04;9.4;68.4
78541;SHT31;67835;51.968;5.646;2024-02-26T12:30:33;9.4;68.4
78541;SHT31;67835;51.968;5.646;2024-02-26T12:33:03;9.4;67.8
78541;SHT31;67835;51.968;5.646;2024-02-26T12:35:35;9.4;68.0
78541;SHT31;67835;51.968;5.646;2024-02-26T12:38:04;9.4;67.8
78541;SHT31;67835;51.968;5.646;2024-02-26T12:40:34;9.4;68.0
78541;SHT31;67835;51.968;5.646;2024-02-26T12:43:02;9.4;67.9
78541;SHT31;67835;51.968;5.646;2024-02-26T12:45:31;9.4;67.7
78541;SHT31;67835;51.968;5.646;2024-02-26T12:48:02;9.4;67.4
78541;SHT31;67835;51.968;5.646;2024-02-26T12:50:30;9.4;67.4
78541;SHT31;67835;51.968;5.646;2024-02-26T12:53:00;9.5;67.7
78541;SHT31;67835;51.968;5.646;2024-02-26T12:55:29;9.5;67.6
78541;SHT31;67835;51.968;5.646;2024-02-26T12:58:02;9.5;67.9
78541;SHT31;67835;51.968;5.646;2024-02-26T13:00:31;9.5;68.0
78541;SHT31;67835;51.968;5.646;2024-02-26T13:03:03;9.5;67.8
78541;SHT31;67835;51.968;5.646;2024-02-26T13:05:35;9.5;67.6
78541;SHT31;67835;51.968;5.646;2024-02-26T13:08:04;9.5;67.7
78541;SHT31;67835;51.968;5.646;2024-02-26T13:10:33;9.5;67.8
78541;SHT31;67835;51.968;5.646;2024-02-26T13:13:04;9.6;67.6
78541;SHT31;67835;51.968;5.646;2024-02-26T13:15:35;9.6;67.2
78541;SHT31;67835;51.968;5.646;2024-02-26T13:18:12;9.6;67.3
78541;SHT31;67835;51.968;5.646;2024-02-26T13:20:42;9.6;67.4
78541;SHT31;67835;51.968;5.646;2024-02-26T13:23:12;9.6;66.8
78541;SHT31;67835;51.968;5.646;2024-02-26T13:25:41;9.7;67.1
78541;SHT31;67835;51.968;5.646;2024-02-26T13:28:13;9.7;67.1
78541;SHT31;67835;51.968;5.646;2024-02-26T13:30:52;9.7;66.9
78541;SHT31;67835;51.968;5.646;2024-02-26T13:33:23;9.7;66.9
78541;SHT31;67835;51.968;5.646;2024-02-26T13:35:52;9.7;67.3
78541;SHT31;67835;51.968;5.646;2024-02-26T13:38:21;9.8;66.9
78541;SHT31;67835;51.968;5.646;2024-02-26T13:40:51;9.8;66.7
78541;SHT31;67835;51.968;5.646;2024-02-26T13:43:20;9.8;66.6
78541;SHT31;67835;51.968;5.646;2024-02-26T13:45:49;9.8;66.5
78541;SHT31;67835;51.968;5.646;2024-02-26T13:48:18;9.8;66.6
78541;SHT31;67835;51.968;5.646;2024-02-26T13:50:46;9.8;66.1
78541;SHT31;67835;51.968;5.646;2024-02-26T13:53:15;9.8;66.4
78541;SHT31;67835;51.968;5.646;2024-02-26T13:55:44;9.8;66.2
78541;SHT31;67835;51.968;5.646;2024-02-26T13:58:13;9.8;66.7
78541;SHT31;67835;51.968;5.646;2024-02-26T14:00:46;9.9;66.8
78541;SHT31;67835;51.968;5.646;2024-02-26T14:03:15;9.9;66.7
78541;SHT31;67835;51.968;5.646;2024-02-26T14:05:46;9.9;66.3
78541;SHT31;67835;51.968;5.646;2024-02-26T14:08:15;9.9;66.4
78541;SHT31;67835;51.968;5.646;2024-02-26T14:10:43;9.9;65.5
78541;SHT31;67835;51.968;5.646;2024-02-26T14:13:12;9.9;65.9
78541;SHT31;67835;51.968;5.646;2024-02-26T14:15:43;9.9;65.8
78541;SHT31;67835;51.968;5.646;2024-02-26T14:18:11;10.0;65.6
78541;SHT31;67835;51.968;5.646;2024-02-26T14:20:40;10.0;65.7
78541;SHT31;67835;51.968;5.646;2024-02-26T14:23:09;10.0;66.0
78541;SHT31;67835;51.968;5.646;2024-02-26T14:25:37;10.0;65.5
78541;SHT31;67835;51.968;5.646;2024-02-26T14:28:06;10.0;65.7
78541;SHT31;67835;51.968;5.646;2024-02-26T14:30:35;10.0;65.2
78541;SHT31;67835;51.968;5.646;2024-02-26T14:33:04;10.0;65.3
78541;SHT31;67835;51.968;5.646;2024-02-26T14:35:33;10.0;65.6
78541;SHT31;67835;51.968;5.646;2024-02-26T14:38:01;10.0;65.3
78541;SHT31;67835;51.968;5.646;2024-02-26T14:40:32;10.0;65.7
78541;SHT31;67835;51.968;5.646;2024-02-26T14:43:01;10.1;65.5
78541;SHT31;67835;51.968;5.646;2024-02-26T14:45:31;10.1;65.2
78541;SHT31;67835;51.968;5.646;2024-02-26T14:48:01;10.1;65.3
78541;SHT31;67835;51.968;5.646;2024-02-26T14:50:29;10.1;65.1
78541;SHT31;67835;51.968;5.646;2024-02-26T14:52:58;10.1;65.3
78541;SHT31;67835;51.968;5.646;2024-02-26T14:55:28;10.2;65.1
78541;SHT31;67835;51.968;5.646;2024-02-26T14:57:57;10.2;64.7
78541;SHT31;67835;51.968;5.646;2024-02-26T15:00:25;10.2;64.3
78541;SHT31;67835;51.968;5.646;2024-02-26T15:02:54;10.3;64.1
78541;SHT31;67835;51.968;5.646;2024-02-26T15:05:22;10.3;63.7
78541;SHT31;67835;51.968;5.646;2024-02-26T15:07:51;10.3;63.5
78541;SHT31;67835;51.968;5.646;2024-02-26T15:10:19;10.3;63.3
78541;SHT31;67835;51.968;5.646;2024-02-26T15:12:49;10.3;62.9
78541;SHT31;67835;51.968;5.646;2024-02-26T15:15:21;10.3;63.2
78541;SHT31;67835;51.968;5.646;2024-02-26T15:17:50;10.3;63.1
78541;SHT31;67835;51.968;5.646;2024-02-26T15:20:22;10.3;63.0
78541;SHT31;67835;51.968;5.646;2024-02-26T15:22:50;10.3;62.8
78541;SHT31;67835;51.968;5.646;2024-02-26T15:25:19;10.3;62.4
78541;SHT31;67835;51.968;5.646;2024-02-26T15:27:47;10.3;62.8
78541;SHT31;67835;51.968;5.646;2024-02-26T15:30:17;10.3;62.3
78541;SHT31;67835;51.968;5.646;2024-02-26T15:32:46;10.3;62.0
78541;SHT31;67835;51.968;5.646;2024-02-26T15:35:14;10.3;62.4
78541;SHT31;67835;51.968;5.646;2024-02-26T15:37:43;10.3;63.0
78541;SHT31;67835;51.968;5.646;2024-02-26T15:40:11;10.3;62.5
78541;SHT31;67835;51.968;5.646;2024-02-26T15:42:40;10.3;62.6
78541;SHT31;67835;51.968;5.646;2024-02-26T15:45:09;10.3;62.1
78541;SHT31;67835;51.968;5.646;2024-02-26T15:47:38;10.3;62.3
78541;SHT31;67835;51.968;5.646;2024-02-26T15:50:07;10.3;62.5
78541;SHT31;67835;51.968;5.646;2024-02-26T15:52:39;10.2;62.4
78541;SHT31;67835;51.968;5.646;2024-02-26T15:55:11;10.2;62.5
78541;SHT31;67835;51.968;5.646;2024-02-26T15:57:40;10.2;62.5
78541;SHT31;67835;51.968;5.646;2024-02-26T16:00:10;10.2;62.3
78541;SHT31;67835;51.968;5.646;2024-02-26T16:02:39;10.2;62.3
78541;SHT31;67835;51.968;5.646;2024-02-26T16:05:09;10.1;62.5
78541;SHT31;67835;51.968;5.646;2024-02-26T16:07:43;10.1;62.4
78541;SHT31;67835;51.968;5.646;2024-02-26T16:10:12;10.1;62.3
78541;SHT31;67835;51.968;5.646;2024-02-26T16:12:44;10.1;62.5
78541;SHT31;67835;51.968;5.646;2024-02-26T16:15:15;10.1;62.6
78541;SHT31;67835;51.968;5.646;2024-02-26T16:17:45;10.0;62.7
78541;SHT31;67835;51.968;5.646;2024-02-26T16:20:16;10.0;62.5
78541;SHT31;67835;51.968;5.646;2024-02-26T16:22:46;10.0;62.7
78541;SHT31;67835;51.968;5.646;2024-02-26T16:25:16;10.0;62.5
78541;SHT31;67835;51.968;5.646;2024-02-26T16:27:45;9.9;62.8
78541;SHT31;67835;51.968;5.646;2024-02-26T16:30:14;9.9;63.0